sensor_id;sensor_type;location;lat;lon;timestamp;temperature;humidity
9410;DHT22;4744;52.576;13.568;2023-12-07T00:01:31;1.40;1.00
9410;DHT22;4744;52.576;13.568;2023-12-07T00:03:59;1.30;1.00
9410;DHT22;4744;52.576;13.568;2023-12-07T00:06:26;1.30;1.00
9410;DHT22;4744;52.576;13.568;2023-12-07T00:08:53;1.30;1.00
9410;DHT22;4744;52.576;13.568;2023-12-07T00:11:23;1.30;1.00
9410;DHT22;4744;52.576;13.568;2023-12-07T00:13:50;1.30;1.00
9410;DHT22;4744;52.576;13.568;2023-12-07T00:16:17;1.30;1.00
9410;DHT22;4744;52.576;13.568;2023-12-07T00:18:43;1.30;1.00
9410;DHT22;4744;52.576;13.568;2023-12-07T00:21:10;1.30;1.00
9410;DHT22;4744;52.576;13.568;2023-12-07T00:23:36;1.30;1.00
9410;DHT22;4744;52.576;13.568;2023-12-07T00:26:04;1.30;1.00
9410;DHT22;4744;52.576;13.568;2023-12-07T00:28:32;1.30;1.00
9410;DHT22;4744;52.576;13.568;2023-12-07T00:30:59;1.30;1.00
9410;DHT22;4744;52.576;13.568;2023-12-07T00:33:27;1.30;1.00
9410;DHT22;4744;52.576;13.568;2023-12-07T00:35:54;1.30;1.00
9410;DHT22;4744;52.576;13.568;2023-12-07T00:38:21;1.30;1.00
9410;DHT22;4744;52.576;13.568;2023-12-07T00:40:48;1.30;1.00
9410;DHT22;4744;52.576;13.568;2023-12-07T00:43:15;1.30;1.00
9410;DHT22;4744;52.576;13.568;2023-12-07T00:45:43;1.30;1.00
9410;DHT22;4744;52.576;13.568;2023-12-07T00:48:10;1.30;1.00
9410;DHT22;4744;52.576;13.568;2023-12-07T00:50:37;1.30;1.00
9410;DHT22;4744;52.576;13.568;2023-12-07T00:53:04;1.30;1.00
9410;DHT22;4744;52.576;13.568;2023-12-07T00:55:31;1.30;1.00
9410;DHT22;4744;52.576;13.568;2023-12-07T00:57:58;1.30;1.00
9410;DHT22;4744;52.576;13.568;2023-12-07T01:00:25;1.40;1.00
9410;DHT22;4744;52.576;13.568;2023-12-07T01:02:54;1.40;1.00
9410;DHT22;4744;52.576;13.568;2023-12-07T01:05:21;1.40;1.00
9410;DHT22;4744;52.576;13.568;2023-12-07T01:07:48;1.40;1.00
9410;DHT22;4744;52.576;13.568;2023-12-07T01:10:14;1.40;1.00
9410;DHT22;4744;52.576;13.568;2023-12-07T01:12:41;1.40;1.00
9410;DHT22;4744;52.576;13.568;2023-12-07T01:15:08;1.40;1.00
9410;DHT22;4744;52.576;13.568;2023-12-07T01:17:35;1.40;1.00
9410;DHT22;4744;52.576;13.568;2023-12-07T01:20:05;1.40;1.00
9410;DHT22;4744;52.576;13.568;2023-12-07T01:22:37;1.30;1.00
9410;DHT22;4744;52.576;13.568;2023-12-07T01:25:06;1.30;1.00
9410;DHT22;4744;52.576;13.568;2023-12-07T01:27:32;1.30;1.00
9410;DHT22;4744;52.576;13.568;2023-12-07T01:29:59;1.30;1.00
9410;DHT22;4744;52.576;13.568;2023-12-07T01:32:26;1.30;1.00
9410;DHT22;4744;52.576;13.568;2023-12-07T01:34:53;1.30;1.00
9410;DHT22;4744;52.576;13.568;2023-12-07T01:37:21;1.30;1.00
9410;DHT22;4744;52.576;13.568;2023-12-07T01:39:49;1.30;1.00
9410;DHT22;4744;52.576;13.568;2023-12-07T01:42:16;1.30;1.00
9410;DHT22;4744;52.576;13.568;2023-12-07T01:44:43;1.30;1.00
9410;DHT22;4744;52.576;13.568;2023-12-07T01:47:10;1.30;1.00
9410;DHT22;4744;52.576;13.568;2023-12-07T01:49:37;1.30;1.00
9410;DHT22;4744;52.576;13.568;2023-12-07T01:52:05;1.20;1.00
9410;DHT22;4744;52.576;13.568;2023-12-07T01:54:34;1.20;1.00
9410;DHT22;4744;52.576;13.568;2023-12-07T01:57:02;1.20;1.00
9410;DHT22;4744;52.576;13.568;2023-12-07T01:59:29;1.20;1.00
9410;DHT22;4744;52.576;13.568;2023-12-07T02:01:56;1.20;1.00
9410;DHT22;4744;52.576;13.568;2023-12-07T02:04:23;1.30;1.00
9410;DHT22;4744;52.576;13.568;2023-12-07T02:06:50;1.20;1.00
9410;DHT22;4744;52.576;13.568;2023-12-07T02:09:19;1.20;1.00
9410;DHT22;4744;52.576;13.568;2023-12-07T02:11:47;1.20;1.00
9410;DHT22;4744;52.576;13.568;2023-12-07T02:14:14;1.30;1.00
9410;DHT22;4744;52.576;13.568;2023-12-07T02:16:45;1.30;1.00
9410;DHT22;4744;52.576;13.568;2023-12-07T02:19:24;1.30;1.00
9410;DHT22;4744;52.576;13.568;2023-12-07T02:21:58;1.30;1.00
9410;DHT22;4744;52.576;13.568;2023-12-07T02:24:27;1.30;1.00
9410;DHT22;4744;52.576;13.568;2023-12-07T02:26:55;1.30;1.00
9410;DHT22;4744;52.576;13.568;2023-12-07T02:29:21;1.30;1.00
9410;DHT22;4744;52.576;13.568;2023-12-07T02:31:48;1.30;1.00
9410;DHT22;4744;52.576;13.568;2023-12-07T02:34:15;1.30;1.00
9410;DHT22;4744;52.576;13.568;2023-12-07T02:36:43;1.30;1.00
9410;DHT22;4744;52.576;13.568;2023-12-07T02:39:12;1.30;1.00
9410;DHT22;4744;52.576;13.568;2023-12-07T02:41:40;1.30;1.00
9410;DHT22;4744;52.576;13.568;2023-12-07T02:44:09;1.30;1.00
9410;DHT22;4744;52.576;13.568;2023-12-07T02:46:37;1.30;1.00
9410;DHT22;4744;52.576;13.568;2023-12-07T02:49:04;1.30;1.00
9410;DHT22;4744;52.576;13.568;2023-12-07T02:51:31;1.30;1.00
9410;DHT22;4744;52.576;13.568;2023-12-07T02:53:58;1.20;1.00
9410;DHT22;4744;52.576;13.568;2023-12-07T02:56:25;1.30;1.00
9410;DHT22;4744;52.576;13.568;2023-12-07T02:58:52;1.20;1.00
9410;DHT22;4744;52.576;13.568;2023-12-07T03:01:20;1.30;1.00
9410;DHT22;4744;52.576;13.568;2023-12-07T03:03:47;1.30;1.00
9410;DHT22;4744;52.576;13.568;2023-12-07T03:06:13;1.30;1.00
9410;DHT22;4744;52.576;13.568;2023-12-07T03:08:41;1.30;1.00
9410;DHT22;4744;52.576;13.568;2023-12-07T03:11:08;1.30;1.00
9410;DHT22;4744;52.576;13.568;2023-12-07T03:13:35;1.30;1.00
9410;DHT22;4744;52.576;13.568;2023-12-07T03:16:07;1.30;1.00
9410;DHT22;4744;52.576;13.568;2023-12-07T03:18:36;1.30;1.00
9410;DHT22;4744;52.576;13.568;2023-12-07T03:21:03;1.30;1.00
9410;DHT22;4744;52.576;13.568;2023-12-07T03:23:30;1.30;1.00
9410;DHT22;4744;52.576;13.568;2023-12-07T03:25:57;1.30;1.00
9410;DHT22;4744;52.576;13.568;2023-12-07T03:28:24;1.30;1.00
9410;DHT22;4744;52.576;13.568;2023-12-07T03:30:51;1.30;1.00
9410;DHT22;4744;52.576;13.568;2023-12-07T03:33:18;1.30;1.00
9410;DHT22;4744;52.576;13.568;2023-12-07T03:35:46;1.30;1.00
9410;DHT22;4744;52.576;13.568;2023-12-07T03:38:13;1.30;1.00
9410;DHT22;4744;52.576;13.568;2023-12-07T03:40:40;1.30;1.00
9410;DHT22;4744;52.576;13.568;2023-12-07T03:43:07;1.30;1.00
9410;DHT22;4744;52.576;13.568;2023-12-07T03:45:34;1.30;1.00
9410;DHT22;4744;52.576;13.568;2023-12-07T03:48:01;1.30;1.00
9410;DHT22;4744;52.576;13.568;2023-12-07T03:50:28;1.30;1.00
9410;DHT22;4744;52.576;13.568;2023-12-07T03:52:56;1.30;1.00
9410;DHT22;4744;52.576;13.568;2023-12-07T03:55:23;1.30;1.00
9410;DHT22;4744;52.576;13.568;2023-12-07T03:57:50;1.30;1.00
9410;DHT22;4744;52.576;13.568;2023-12-07T04:00:17;1.30;1.00
9410;DHT22;4744;52.576;13.568;2023-12-07T04:02:44;1.30;1.00
9410;DHT22;4744;52.576;13.568;2023-12-07T04:05:11;1.30;1.00
9410;DHT22;4744;52.576;13.568;2023-12-07T04:07:38;1.30;1.00
9410;DHT22;4744;52.576;13.568;2023-12-07T04:10:07;1.30;1.00
9410;DHT22;4744;52.576;13.568;2023-12-07T04:12:34;1.30;1.00
9410;DHT22;4744;52.576;13.568;2023-12-07T04:15:01;1.30;1.00
9410;DHT22;4744;52.576;13.568;2023-12-07T04:17:28;1.30;1.00
9410;DHT22;4744;52.576;13.568;2023-12-07T04:19:55;1.20;1.00
9410;DHT22;4744;52.576;13.568;2023-12-07T04:22:22;1.20;1.00
9410;DHT22;4744;52.576;13.568;2023-12-07T04:24:49;1.20;1.00
9410;DHT22;4744;52.576;13.568;2023-12-07T04:27:17;1.20;1.00
9410;DHT22;4744;52.576;13.568;2023-12-07T04:29:44;1.20;1.00
9410;DHT22;4744;52.576;13.568;2023-12-07T04:32:11;1.20;1.00
9410;DHT22;4744;52.576;13.568;2023-12-07T04:34:38;1.30;1.00
9410;DHT22;4744;52.576;13.568;2023-12-07T04:37:05;1.20;1.00
9410;DHT22;4744;52.576;13.568;2023-12-07T04:39:32;1.30;1.00
9410;DHT22;4744;52.576;13.568;2023-12-07T04:41:59;1.20;1.00
9410;DHT22;4744;52.576;13.568;2023-12-07T04:44:27;1.20;1.00
9410;DHT22;4744;52.576;13.568;2023-12-07T04:46:54;1.20;1.00
9410;DHT22;4744;52.576;13.568;2023-12-07T04:49:21;1.20;1.00
9410;DHT22;4744;52.576;13.568;2023-12-07T04:51:48;1.20;1.00
9410;DHT22;4744;52.576;13.568;2023-12-07T04:54:15;1.20;1.00
9410;DHT22;4744;52.576;13.568;2023-12-07T04:56:42;1.20;1.00
9410;DHT22;4744;52.576;13.568;2023-12-07T04:59:09;1.20;1.00
9410;DHT22;4744;52.576;13.568;2023-12-07T05:01:37;1.20;1.00
9410;DHT22;4744;52.576;13.568;2023-12-07T05:04:05;1.20;1.00
9410;DHT22;4744;52.576;13.568;2023-12-07T05:06:32;1.20;1.00
9410;DHT22;4744;52.576;13.568;2023-12-07T05:08:59;1.20;1.00
9410;DHT22;4744;52.576;13.568;2023-12-07T05:11:26;1.20;1.00
9410;DHT22;4744;52.576;13.568;2023-12-07T05:13:53;1.20;1.00
9410;DHT22;4744;52.576;13.568;2023-12-07T05:16:20;1.20;1.00
9410;DHT22;4744;52.576;13.568;2023-12-07T05:18:48;1.20;1.00
9410;DHT22;4744;52.576;13.568;2023-12-07T05:21:15;1.20;1.00
9410;DHT22;4744;52.576;13.568;2023-12-07T05:23:42;1.20;1.00
9410;DHT22;4744;52.576;13.568;2023-12-07T05:26:09;1.20;1.00
9410;DHT22;4744;52.576;13.568;2023-12-07T05:28:36;1.20;1.00
9410;DHT22;4744;52.576;13.568;2023-12-07T05:31:03;1.20;1.00
9410;DHT22;4744;52.576;13.568;2023-12-07T05:33:30;1.20;1.00
9410;DHT22;4744;52.576;13.568;2023-12-07T05:35:59;1.20;1.00
9410;DHT22;4744;52.576;13.568;2023-12-07T05:38:26;1.20;1.00
9410;DHT22;4744;52.576;13.568;2023-12-07T05:40:53;1.20;1.00
9410;DHT22;4744;52.576;13.568;2023-12-07T05:43:19;1.20;1.00
9410;DHT22;4744;52.576;13.568;2023-12-07T05:45:46;1.20;1.00
9410;DHT22;4744;52.576;13.568;2023-12-07T05:48:13;1.20;1.00
9410;DHT22;4744;52.576;13.568;2023-12-07T05:50:40;1.20;1.00
9410;DHT22;4744;52.576;13.568;2023-12-07T05:53:08;1.20;1.00
9410;DHT22;4744;52.576;13.568;2023-12-07T05:55:36;1.20;1.00
9410;DHT22;4744;52.576;13.568;2023-12-07T05:58:03;1.20;1.00
9410;DHT22;4744;52.576;13.568;2023-12-07T06:00:30;1.20;1.00
9410;DHT22;4744;52.576;13.568;2023-12-07T06:02:57;1.20;1.00
9410;DHT22;4744;52.576;13.568;2023-12-07T06:05:25;1.20;1.00
9410;DHT22;4744;52.576;13.568;2023-12-07T06:07:51;1.10;1.00
9410;DHT22;4744;52.576;13.568;2023-12-07T06:10:21;1.10;1.00
9410;DHT22;4744;52.576;13.568;2023-12-07T06:12:48;1.10;1.00
9410;DHT22;4744;52.576;13.568;2023-12-07T06:15:15;1.10;1.00
9410;DHT22;4744;52.576;13.568;2023-12-07T06:17:42;1.10;1.00
9410;DHT22;4744;52.576;13.568;2023-12-07T06:20:10;1.10;1.00
9410;DHT22;4744;52.576;13.568;2023-12-07T06:22:37;1.10;1.00
9410;DHT22;4744;52.576;13.568;2023-12-07T06:25:05;1.10;1.00
9410;DHT22;4744;52.576;13.568;2023-12-07T06:27:35;1.10;1.00
9410;DHT22;4744;52.576;13.568;2023-12-07T06:30:03;1.10;1.00
9410;DHT22;4744;52.576;13.568;2023-12-07T06:32:31;1.10;1.00
9410;DHT22;4744;52.576;13.568;2023-12-07T06:34:58;1.20;1.00
9410;DHT22;4744;52.576;13.568;2023-12-07T06:37:25;1.10;1.00
9410;DHT22;4744;52.576;13.568;2023-12-07T06:39:52;1.20;1.00
9410;DHT22;4744;52.576;13.568;2023-12-07T06:42:19;1.20;1.00
9410;DHT22;4744;52.576;13.568;2023-12-07T06:44:48;1.20;1.00
9410;DHT22;4744;52.576;13.568;2023-12-07T06:47:15;1.20;1.00
9410;DHT22;4744;52.576;13.568;2023-12-07T06:49:42;1.10;1.00
9410;DHT22;4744;52.576;13.568;2023-12-07T06:52:09;1.20;1.00
9410;DHT22;4744;52.576;13.568;2023-12-07T06:54:36;1.20;1.00
9410;DHT22;4744;52.576;13.568;2023-12-07T06:57:04;1.20;1.00
9410;DHT22;4744;52.576;13.568;2023-12-07T06:59:32;1.20;1.00
9410;DHT22;4744;52.576;13.568;2023-12-07T07:02:01;1.10;1.00
9410;DHT22;4744;52.576;13.568;2023-12-07T07:04:28;1.10;1.00
9410;DHT22;4744;52.576;13.568;2023-12-07T07:06:55;1.10;1.00
9410;DHT22;4744;52.576;13.568;2023-12-07T07:09:22;1.20;1.00
9410;DHT22;4744;52.576;13.568;2023-12-07T07:11:49;1.20;1.00
9410;DHT22;4744;52.576;13.568;2023-12-07T07:14:16;1.20;1.00
9410;DHT22;4744;52.576;13.568;2023-12-07T07:16:43;1.20;1.00
9410;DHT22;4744;52.576;13.568;2023-12-07T07:19:11;1.10;1.00
9410;DHT22;4744;52.576;13.568;2023-12-07T07:21:38;1.20;1.00
9410;DHT22;4744;52.576;13.568;2023-12-07T07:24:05;1.20;1.00
9410;DHT22;4744;52.576;13.568;2023-12-07T07:26:33;1.20;1.00
9410;DHT22;4744;52.576;13.568;2023-12-07T07:29:00;1.30;1.00
9410;DHT22;4744;52.576;13.568;2023-12-07T07:31:28;1.40;1.00
9410;DHT22;4744;52.576;13.568;2023-12-07T07:33:55;1.40;1.00
9410;DHT22;4744;52.576;13.568;2023-12-07T07:36:23;1.40;1.00
9410;DHT22;4744;52.576;13.568;2023-12-07T07:38:50;1.50;1.00
9410;DHT22;4744;52.576;13.568;2023-12-07T07:41:17;1.50;1.00
9410;DHT22;4744;52.576;13.568;2023-12-07T07:43:44;1.60;1.00
9410;DHT22;4744;52.576;13.568;2023-12-07T07:46:11;1.70;1.00
9410;DHT22;4744;52.576;13.568;2023-12-07T07:48:38;1.70;1.00
9410;DHT22;4744;52.576;13.568;2023-12-07T07:51:05;1.80;1.00
9410;DHT22;4744;52.576;13.568;2023-12-07T07:53:33;1.80;1.00
9410;DHT22;4744;52.576;13.568;2023-12-07T07:56:00;1.80;1.00
9410;DHT22;4744;52.576;13.568;2023-12-07T07:58:27;1.80;1.00
9410;DHT22;4744;52.576;13.568;2023-12-07T08:00:54;1.80;1.00
9410;DHT22;4744;52.576;13.568;2023-12-07T08:03:20;1.80;1.00
9410;DHT22;4744;52.576;13.568;2023-12-07T08:05:47;1.80;1.00
9410;DHT22;4744;52.576;13.568;2023-12-07T08:08:14;1.80;1.00
9410;DHT22;4744;52.576;13.568;2023-12-07T08:10:42;1.80;1.00
9410;DHT22;4744;52.576;13.568;2023-12-07T08:13:09;1.80;1.00
9410;DHT22;4744;52.576;13.568;2023-12-07T08:15:37;1.90;1.00
9410;DHT22;4744;52.576;13.568;2023-12-07T08:18:04;1.90;1.00
9410;DHT22;4744;52.576;13.568;2023-12-07T08:20:31;1.90;1.00
9410;DHT22;4744;52.576;13.568;2023-12-07T08:22:58;2.00;1.00
9410;DHT22;4744;52.576;13.568;2023-12-07T08:25:25;2.00;1.00
9410;DHT22;4744;52.576;13.568;2023-12-07T08:27:53;2.00;1.00
9410;DHT22;4744;52.576;13.568;2023-12-07T08:30:20;2.00;1.00
9410;DHT22;4744;52.576;13.568;2023-12-07T08:32:47;2.00;1.00
9410;DHT22;4744;52.576;13.568;2023-12-07T08:35:14;2.00;1.00
9410;DHT22;4744;52.576;13.568;2023-12-07T08:37:41;2.00;1.00
9410;DHT22;4744;52.576;13.568;2023-12-07T08:40:09;2.00;1.00
9410;DHT22;4744;52.576;13.568;2023-12-07T08:42:40;2.00;1.00
9410;DHT22;4744;52.576;13.568;2023-12-07T08:45:09;2.00;1.00
9410;DHT22;4744;52.576;13.568;2023-12-07T08:47:36;1.90;1.00
9410;DHT22;4744;52.576;13.568;2023-12-07T08:50:04;1.90;1.00
9410;DHT22;4744;52.576;13.568;2023-12-07T08:52:30;1.90;1.00
9410;DHT22;4744;52.576;13.568;2023-12-07T08:54:58;1.90;1.00
9410;DHT22;4744;52.576;13.568;2023-12-07T08:57:25;1.90;1.00
9410;DHT22;4744;52.576;13.568;2023-12-07T08:59:52;1.90;1.00
9410;DHT22;4744;52.576;13.568;2023-12-07T09:02:19;1.90;1.00
9410;DHT22;4744;52.576;13.568;2023-12-07T09:04:46;2.00;1.00
9410;DHT22;4744;52.576;13.568;2023-12-07T09:07:14;1.90;1.00
9410;DHT22;4744;52.576;13.568;2023-12-07T09:09:42;1.90;1.00
9410;DHT22;4744;52.576;13.568;2023-12-07T09:12:14;1.90;1.00
9410;DHT22;4744;52.576;13.568;2023-12-07T09:14:46;2.00;1.00
9410;DHT22;4744;52.576;13.568;2023-12-07T09:17:21;2.00;1.00
9410;DHT22;4744;52.576;13.568;2023-12-07T09:19:54;2.00;1.00
9410;DHT22;4744;52.576;13.568;2023-12-07T09:22:28;2.00;1.00
9410;DHT22;4744;52.576;13.568;2023-12-07T09:24:58;2.00;1.00
9410;DHT22;4744;52.576;13.568;2023-12-07T09:27:25;2.00;1.00
9410;DHT22;4744;52.576;13.568;2023-12-07T09:29:52;2.00;1.00
9410;DHT22;4744;52.576;13.568;2023-12-07T09:32:20;2.00;1.00
9410;DHT22;4744;52.576;13.568;2023-12-07T09:34:47;2.10;1.00
9410;DHT22;4744;52.576;13.568;2023-12-07T09:37:16;2.10;1.00
9410;DHT22;4744;52.576;13.568;2023-12-07T09:39:43;2.10;1.00
9410;DHT22;4744;52.576;13.568;2023-12-07T09:42:10;2.10;1.00
9410;DHT22;4744;52.576;13.568;2023-12-07T09:44:37;2.10;1.00
9410;DHT22;4744;52.576;13.568;2023-12-07T09:47:05;2.10;1.00
9410;DHT22;4744;52.576;13.568;2023-12-07T09:49:33;2.10;1.00
9410;DHT22;4744;52.576;13.568;2023-12-07T09:52:01;2.10;1.00
9410;DHT22;4744;52.576;13.568;2023-12-07T09:54:29;2.10;1.00
9410;DHT22;4744;52.576;13.568;2023-12-07T09:56:56;2.10;1.00
9410;DHT22;4744;52.576;13.568;2023-12-07T09:59:23;2.10;1.00
9410;DHT22;4744;52.576;13.568;2023-12-07T10:01:50;2.10;1.00
9410;DHT22;4744;52.576;13.568;2023-12-07T10:04:20;2.10;1.00
9410;DHT22;4744;52.576;13.568;2023-12-07T10:06:50;2.10;1.00
9410;DHT22;4744;52.576;13.568;2023-12-07T10:09:17;2.10;1.00
9410;DHT22;4744;52.576;13.568;2023-12-07T10:11:44;2.20;1.00
9410;DHT22;4744;52.576;13.568;2023-12-07T10:14:11;2.20;1.00
9410;DHT22;4744;52.576;13.568;2023-12-07T10:16:38;2.10;1.00
9410;DHT22;4744;52.576;13.568;2023-12-07T10:19:23;2.10;1.00
9410;DHT22;4744;52.576;13.568;2023-12-07T10:21:52;2.10;1.00
9410;DHT22;4744;52.576;13.568;2023-12-07T10:24:20;2.10;1.00
9410;DHT22;4744;52.576;13.568;2023-12-07T10:26:49;2.10;1.00
9410;DHT22;4744;52.576;13.568;2023-12-07T10:29:17;2.10;1.00
9410;DHT22;4744;52.576;13.568;2023-12-07T10:31:44;2.10;1.00
9410;DHT22;4744;52.576;13.568;2023-12-07T10:34:12;2.10;1.00
9410;DHT22;4744;52.576;13.568;2023-12-07T10:36:39;2.10;1.00
9410;DHT22;4744;52.576;13.568;2023-12-07T10:39:08;2.10;1.00
9410;DHT22;4744;52.576;13.568;2023-12-07T10:41:35;2.10;1.00
9410;DHT22;4744;52.576;13.568;2023-12-07T10:44:07;2.20;1.00
9410;DHT22;4744;52.576;13.568;2023-12-07T10:46:35;2.20;1.00
9410;DHT22;4744;52.576;13.568;2023-12-07T10:49:04;2.20;1.00
9410;DHT22;4744;52.576;13.568;2023-12-07T10:51:37;2.20;1.00
9410;DHT22;4744;52.576;13.568;2023-12-07T10:54:08;2.20;1.00
9410;DHT22;4744;52.576;13.568;2023-12-07T10:56:39;2.20;1.00
9410;DHT22;4744;52.576;13.568;2023-12-07T10:59:08;2.20;1.00
9410;DHT22;4744;52.576;13.568;2023-12-07T11:01:37;2.20;1.00
9410;DHT22;4744;52.576;13.568;2023-12-07T11:04:05;2.20;1.00
9410;DHT22;4744;52.576;13.568;2023-12-07T11:06:32;2.20;1.00
9410;DHT22;4744;52.576;13.568;2023-12-07T11:09:01;2.10;1.00
9410;DHT22;4744;52.576;13.568;2023-12-07T11:11:36;2.10;1.00
9410;DHT22;4744;52.576;13.568;2023-12-07T11:14:07;2.10;1.00
9410;DHT22;4744;52.576;13.568;2023-12-07T11:16:38;2.10;1.00
9410;DHT22;4744;52.576;13.568;2023-12-07T11:22:09;2.10;1.00
9410;DHT22;4744;52.576;13.568;2023-12-07T11:24:37;2.10;1.00
9410;DHT22;4744;52.576;13.568;2023-12-07T11:27:05;2.20;1.00
9410;DHT22;4744;52.576;13.568;2023-12-07T11:29:32;2.20;1.00
9410;DHT22;4744;52.576;13.568;2023-12-07T11:32:01;2.30;1.00
9410;DHT22;4744;52.576;13.568;2023-12-07T11:34:35;2.30;1.00
9410;DHT22;4744;52.576;13.568;2023-12-07T11:37:02;2.30;1.00
9410;DHT22;4744;52.576;13.568;2023-12-07T11:39:30;2.40;1.00
9410;DHT22;4744;52.576;13.568;2023-12-07T11:42:10;2.40;1.00
9410;DHT22;4744;52.576;13.568;2023-12-07T11:44:37;2.50;1.00
9410;DHT22;4744;52.576;13.568;2023-12-07T11:47:04;2.50;1.00
9410;DHT22;4744;52.576;13.568;2023-12-07T11:49:32;2.50;1.00
9410;DHT22;4744;52.576;13.568;2023-12-07T11:51:59;2.60;1.00
9410;DHT22;4744;52.576;13.568;2023-12-07T11:54:26;2.60;1.00
9410;DHT22;4744;52.576;13.568;2023-12-07T11:56:53;2.60;1.00
9410;DHT22;4744;52.576;13.568;2023-12-07T11:59:22;2.60;1.00
9410;DHT22;4744;52.576;13.568;2023-12-07T12:01:51;2.60;1.00
9410;DHT22;4744;52.576;13.568;2023-12-07T12:04:18;2.60;1.00
9410;DHT22;4744;52.576;13.568;2023-12-07T12:06:45;2.50;1.00
9410;DHT22;4744;52.576;13.568;2023-12-07T12:09:12;2.50;1.00
9410;DHT22;4744;52.576;13.568;2023-12-07T12:11:44;2.50;1.00
9410;DHT22;4744;52.576;13.568;2023-12-07T12:14:12;2.40;1.00
9410;DHT22;4744;52.576;13.568;2023-12-07T12:16:41;2.40;1.00
9410;DHT22;4744;52.576;13.568;2023-12-07T12:19:09;2.40;1.00
9410;DHT22;4744;52.576;13.568;2023-12-07T12:21:37;2.40;1.00
9410;DHT22;4744;52.576;13.568;2023-12-07T12:24:05;2.30;1.00
9410;DHT22;4744;52.576;13.568;2023-12-07T12:26:34;2.30;1.00
9410;DHT22;4744;52.576;13.568;2023-12-07T12:29:01;2.30;1.00
9410;DHT22;4744;52.576;13.568;2023-12-07T12:31:28;2.20;1.00
9410;DHT22;4744;52.576;13.568;2023-12-07T12:33:57;2.20;1.00
9410;DHT22;4744;52.576;13.568;2023-12-07T12:36:25;2.20;1.00
9410;DHT22;4744;52.576;13.568;2023-12-07T12:38:54;2.20;1.00
9410;DHT22;4744;52.576;13.568;2023-12-07T12:41:21;2.10;1.00
9410;DHT22;4744;52.576;13.568;2023-12-07T12:43:48;2.10;1.00
9410;DHT22;4744;52.576;13.568;2023-12-07T12:46:16;2.10;1.00
9410;DHT22;4744;52.576;13.568;2023-12-07T12:48:53;2.10;1.00
9410;DHT22;4744;52.576;13.568;2023-12-07T12:51:24;2.20;1.00
9410;DHT22;4744;52.576;13.568;2023-12-07T12:53:53;2.10;1.00
9410;DHT22;4744;52.576;13.568;2023-12-07T12:56:21;2.10;1.00
9410;DHT22;4744;52.576;13.568;2023-12-07T12:58:48;2.10;1.00
9410;DHT22;4744;52.576;13.568;2023-12-07T13:01:15;2.10;1.00
9410;DHT22;4744;52.576;13.568;2023-12-07T13:03:43;2.10;1.00
9410;DHT22;4744;52.576;13.568;2023-12-07T13:06:11;2.10;1.00
9410;DHT22;4744;52.576;13.568;2023-12-07T13:08:41;2.10;1.00
9410;DHT22;4744;52.576;13.568;2023-12-07T13:11:09;2.10;1.00
9410;DHT22;4744;52.576;13.568;2023-12-07T13:13:36;2.10;1.00
9410;DHT22;4744;52.576;13.568;2023-12-07T13:16:03;2.10;1.00
9410;DHT22;4744;52.576;13.568;2023-12-07T13:18:30;2.00;1.00
9410;DHT22;4744;52.576;13.568;2023-12-07T13:20:57;2.00;1.00
9410;DHT22;4744;52.576;13.568;2023-12-07T13:23:25;2.10;1.00
9410;DHT22;4744;52.576;13.568;2023-12-07T13:25:53;2.10;1.00
9410;DHT22;4744;52.576;13.568;2023-12-07T13:28:20;2.00;1.00
9410;DHT22;4744;52.576;13.568;2023-12-07T13:30:48;2.00;1.00
9410;DHT22;4744;52.576;13.568;2023-12-07T13:33:15;2.00;1.00
9410;DHT22;4744;52.576;13.568;2023-12-07T13:35:42;2.00;1.00
9410;DHT22;4744;52.576;13.568;2023-12-07T13:38:09;2.00;1.00
9410;DHT22;4744;52.576;13.568;2023-12-07T13:40:36;2.00;1.00
9410;DHT22;4744;52.576;13.568;2023-12-07T13:43:04;2.00;1.00
9410;DHT22;4744;52.576;13.568;2023-12-07T13:45:32;1.90;1.00
9410;DHT22;4744;52.576;13.568;2023-12-07T13:47:59;1.90;1.00
9410;DHT22;4744;52.576;13.568;2023-12-07T13:50:26;1.90;1.00
9410;DHT22;4744;52.576;13.568;2023-12-07T13:52:55;1.90;1.00
9410;DHT22;4744;52.576;13.568;2023-12-07T13:55:22;1.90;1.00
9410;DHT22;4744;52.576;13.568;2023-12-07T13:57:49;1.90;1.00
9410;DHT22;4744;52.576;13.568;2023-12-07T14:00:19;1.80;1.00
9410;DHT22;4744;52.576;13.568;2023-12-07T14:02:46;1.80;1.00
9410;DHT22;4744;52.576;13.568;2023-12-07T14:05:13;1.80;1.00
9410;DHT22;4744;52.576;13.568;2023-12-07T14:07:40;1.80;1.00
9410;DHT22;4744;52.576;13.568;2023-12-07T14:10:08;1.80;1.00
9410;DHT22;4744;52.576;13.568;2023-12-07T14:12:35;1.80;1.00
9410;DHT22;4744;52.576;13.568;2023-12-07T14:15:02;1.80;1.00
9410;DHT22;4744;52.576;13.568;2023-12-07T14:17:30;1.80;1.00
9410;DHT22;4744;52.576;13.568;2023-12-07T14:20:03;1.80;1.00
9410;DHT22;4744;52.576;13.568;2023-12-07T14:22:30;1.80;1.00
9410;DHT22;4744;52.576;13.568;2023-12-07T14:24:57;1.80;1.00
9410;DHT22;4744;52.576;13.568;2023-12-07T14:27:24;1.90;1.00
9410;DHT22;4744;52.576;13.568;2023-12-07T14:29:51;1.90;1.00
9410;DHT22;4744;52.576;13.568;2023-12-07T14:32:18;1.90;1.00
9410;DHT22;4744;52.576;13.568;2023-12-07T14:34:46;1.90;1.00
9410;DHT22;4744;52.576;13.568;2023-12-07T14:37:13;1.90;1.00
9410;DHT22;4744;52.576;13.568;2023-12-07T14:39:40;1.90;1.00
9410;DHT22;4744;52.576;13.568;2023-12-07T14:42:07;1.90;1.00
9410;DHT22;4744;52.576;13.568;2023-12-07T14:44:34;1.90;1.00
9410;DHT22;4744;52.576;13.568;2023-12-07T14:47:01;1.90;1.00
9410;DHT22;4744;52.576;13.568;2023-12-07T14:49:28;1.80;1.00
9410;DHT22;4744;52.576;13.568;2023-12-07T14:51:57;1.80;1.00
9410;DHT22;4744;52.576;13.568;2023-12-07T14:54:24;1.90;1.00
9410;DHT22;4744;52.576;13.568;2023-12-07T14:56:51;2.00;1.00
9410;DHT22;4744;52.576;13.568;2023-12-07T14:59:18;2.00;1.00
9410;DHT22;4744;52.576;13.568;2023-12-07T15:01:45;2.00;1.00
9410;DHT22;4744;52.576;13.568;2023-12-07T15:04:12;2.00;1.00
9410;DHT22;4744;52.576;13.568;2023-12-07T15:06:39;2.00;1.00
9410;DHT22;4744;52.576;13.568;2023-12-07T15:09:07;2.00;1.00
9410;DHT22;4744;52.576;13.568;2023-12-07T15:11:34;2.00;1.00
9410;DHT22;4744;52.576;13.568;2023-12-07T15:14:01;2.00;1.00
9410;DHT22;4744;52.576;13.568;2023-12-07T15:16:29;1.90;1.00
9410;DHT22;4744;52.576;13.568;2023-12-07T15:18:55;1.90;1.00
9410;DHT22;4744;52.576;13.568;2023-12-07T15:21:22;1.90;1.00
9410;DHT22;4744;52.576;13.568;2023-12-07T15:23:50;1.90;1.00
9410;DHT22;4744;52.576;13.568;2023-12-07T15:26:18;1.90;1.00
9410;DHT22;4744;52.576;13.568;2023-12-07T15:28:45;1.90;1.00
9410;DHT22;4744;52.576;13.568;2023-12-07T15:31:12;1.90;1.00
9410;DHT22;4744;52.576;13.568;2023-12-07T15:33:40;1.90;1.00
9410;DHT22;4744;52.576;13.568;2023-12-07T15:36:07;1.90;1.00
9410;DHT22;4744;52.576;13.568;2023-12-07T15:38:34;1.90;1.00
9410;DHT22;4744;52.576;13.568;2023-12-07T15:41:02;1.90;1.00
9410;DHT22;4744;52.576;13.568;2023-12-07T15:43:30;1.90;1.00
9410;DHT22;4744;52.576;13.568;2023-12-07T15:45:59;1.80;1.00
9410;DHT22;4744;52.576;13.568;2023-12-07T15:48:25;1.80;1.00
9410;DHT22;4744;52.576;13.568;2023-12-07T15:50:53;1.80;1.00
9410;DHT22;4744;52.576;13.568;2023-12-07T15:53:20;1.80;1.00
9410;DHT22;4744;52.576;13.568;2023-12-07T15:55:47;1.80;1.00
9410;DHT22;4744;52.576;13.568;2023-12-07T15:58:14;1.80;1.00
9410;DHT22;4744;52.576;13.568;2023-12-07T16:00:44;1.80;1.00
9410;DHT22;4744;52.576;13.568;2023-12-07T16:03:11;1.80;1.00
9410;DHT22;4744;52.576;13.568;2023-12-07T16:05:38;1.80;1.00
9410;DHT22;4744;52.576;13.568;2023-12-07T16:08:05;1.70;1.00
9410;DHT22;4744;52.576;13.568;2023-12-07T16:10:32;1.80;1.00
9410;DHT22;4744;52.576;13.568;2023-12-07T16:13:00;1.70;1.00
9410;DHT22;4744;52.576;13.568;2023-12-07T16:15:27;1.80;1.00
9410;DHT22;4744;52.576;13.568;2023-12-07T16:17:55;1.80;1.00
9410;DHT22;4744;52.576;13.568;2023-12-07T16:20:22;1.80;1.00
9410;DHT22;4744;52.576;13.568;2023-12-07T16:22:49;1.80;1.00